createdAt,value
2023-04-17T00:02:31.029Z,96.20
2023-04-17T00:07:30.009Z,95.43
2023-04-17T00:12:30.325Z,95.22
2023-04-17T00:17:29.275Z,94.77
2023-04-17T00:22:28.183Z,93.56
2023-04-17T00:27:26.955Z,95.57
2023-04-17T00:32:27.295Z,95.26
2023-04-17T00:37:26.228Z,95.28
2023-04-17T00:42:25.004Z,95.42
2023-04-17T00:47:26.505Z,93.72
2023-04-17T00:52:30.176Z,92.85
2023-04-17T00:57:29.336Z,93.36
2023-04-17T01:02:28.750Z,94.27
2023-04-17T01:07:30.929Z,94.11
2023-04-17T01:12:30.109Z,93.86
2023-04-17T01:17:29.265Z,93.86
2023-04-17T01:22:29.875Z,94.33
2023-04-17T01:27:31.765Z,94.18
2023-04-17T01:32:31.387Z,96.17
2023-04-17T01:37:31.289Z,96.16
2023-04-17T01:42:32.983Z,95.71
2023-04-17T01:47:31.858Z,95.84
2023-04-17T01:52:30.649Z,95.33
2023-04-17T01:57:29.663Z,95.20
2023-04-17T02:02:29.987Z,95.94
2023-04-17T02:07:28.978Z,95.37
2023-04-17T02:12:27.744Z,95.96
2023-04-17T02:17:26.656Z,97.25
2023-04-17T02:22:26.775Z,97.23
2023-04-17T02:27:25.866Z,95.81
2023-04-17T02:32:24.812Z,97.26
2023-04-17T02:37:23.849Z,97.36
2023-04-17T02:42:25.014Z,95.73
2023-04-17T02:47:23.998Z,95.12
2023-04-17T02:52:22.962Z,93.33
2023-04-17T02:57:22.302Z,93.26
2023-04-17T03:02:22.645Z,93.80
2023-04-17T03:07:23.782Z,95.29
2023-04-17T03:12:22.702Z,95.76
2023-04-17T03:17:22.975Z,93.75
2023-04-17T03:22:21.851Z,94.10
2023-04-17T03:27:24.616Z,93.72
2023-04-17T03:32:27.262Z,93.85
2023-04-17T03:37:26.377Z,95.03
2023-04-17T03:42:27.833Z,94.37
2023-04-17T03:47:28.230Z,95.06
2023-04-17T03:52:28.481Z,96.08
2023-04-17T03:57:30.048Z,94.21
2023-04-17T04:02:31.214Z,94.43
2023-04-17T04:07:30.474Z,96.07
2023-04-17T04:12:30.490Z,95.36
2023-04-17T04:17:30.880Z,95.89
2023-04-17T04:22:30.444Z,97.09
2023-04-17T04:27:32.945Z,96.00
2023-04-17T04:32:34.057Z,96.55
2023-04-17T04:37:33.021Z,94.86
2023-04-17T04:42:36.943Z,93.97
2023-04-17T04:47:44.391Z,93.31
2023-04-17T04:52:44.027Z,92.75
2023-04-17T04:57:59.089Z,91.98
2023-04-17T05:03:00.968Z,91.71
2023-04-17T05:08:01.101Z,91.44
2023-04-17T05:13:03.019Z,92.12
2023-04-17T05:18:03.472Z,93.03
2023-04-17T05:23:04.950Z,92.96
2023-04-17T05:28:03.803Z,94.66
2023-04-17T05:33:05.442Z,94.35
2023-04-17T05:38:14.935Z,94.21
2023-04-17T05:43:14.057Z,96.37
2023-04-17T05:48:14.430Z,96.64
2023-04-17T05:53:13.526Z,97.50
2023-04-17T05:58:24.144Z,97.17
2023-04-17T06:03:28.125Z,97.68
2023-04-17T06:08:49.832Z,97.13
2023-04-17T06:13:48.830Z,97.17
2023-04-17T06:18:50.904Z,96.72
2023-04-17T06:23:49.971Z,95.97
2023-04-17T06:28:49.218Z,95.42
2023-04-17T06:33:50.209Z,94.06
2023-04-17T06:38:55.877Z,94.52
2023-04-17T06:43:55.089Z,93.62
2023-04-17T06:48:57.965Z,92.21
2023-04-17T06:53:58.194Z,92.63
2023-04-17T06:58:58.014Z,92.92
2023-04-17T07:03:56.971Z,92.24
2023-04-17T07:08:57.261Z,91.96
2023-04-17T07:13:56.144Z,92.70
2023-04-17T07:18:54.992Z,92.96
2023-04-17T07:23:53.958Z,93.62
2023-04-17T07:28:54.322Z,94.03
2023-04-17T07:33:53.213Z,92.73
2023-04-17T07:38:52.114Z,93.99
2023-04-17T07:43:51.150Z,93.79
2023-04-17T07:48:51.676Z,94.59
2023-04-17T07:53:50.683Z,95.23
2023-04-17T07:58:51.981Z,95.72
2023-04-17T08:03:52.957Z,95.44
2023-04-17T08:08:52.210Z,96.26
2023-04-17T08:13:51.667Z,95.65
2023-04-17T08:18:51.789Z,95.53
2023-04-17T08:23:50.623Z,94.36
2023-04-17T08:28:49.882Z,94.94
2023-04-17T08:33:49.085Z,95.55
2023-04-17T08:38:49.951Z,96.46
2023-04-17T08:43:50.765Z,96.59
2023-04-17T08:48:51.688Z,97.06
2023-04-17T08:53:52.858Z,98.09
2023-04-17T08:58:51.909Z,98.24
2023-04-17T09:03:52.770Z,98.59
2023-04-17T09:09:04.053Z,99.93
2023-04-17T09:14:02.877Z,98.49
2023-04-17T09:19:07.957Z,98.67
2023-04-17T09:24:10.252Z,98.29
2023-04-17T09:29:12.299Z,98.34
2023-04-17T09:34:12.938Z,98.32
2023-04-17T09:39:21.026Z,98.08
2023-04-17T09:44:28.064Z,98.36
2023-04-17T09:49:35.084Z,96.74
2023-04-17T09:54:38.300Z,96.54
2023-04-17T09:59:42.203Z,95.78
2023-04-17T10:04:42.326Z,95.28
2023-04-17T10:09:45.697Z,94.53
2023-04-17T10:14:48.467Z,96.03
2023-04-17T10:19:50.665Z,96.68
2023-04-17T10:24:53.919Z,97.07
2023-04-17T10:29:57.350Z,96.03
2023-04-17T10:35:00.447Z,95.11
2023-04-17T10:40:05.151Z,97.03
2023-04-17T10:45:06.253Z,95.22
2023-04-17T10:50:10.082Z,95.28
2023-04-17T10:55:16.435Z,95.00
2023-04-17T11:00:16.754Z,95.63
2023-04-17T11:05:25.081Z,96.65
2023-04-17T11:10:26.588Z,96.30
2023-04-17T11:15:30.690Z,96.27
2023-04-17T11:20:34.513Z,97.44
2023-04-17T11:25:37.954Z,97.82
2023-04-17T11:30:42.317Z,98.60
2023-04-17T11:35:43.810Z,95.69
2023-04-17T11:41:00.182Z,97.15
2023-04-17T11:46:01.652Z,96.85
2023-04-17T11:51:04.505Z,95.23
2023-04-17T11:56:19.859Z,94.16
2023-04-17T12:01:23.385Z,94.80
2023-04-17T12:06:25.080Z,93.54
2023-04-17T12:11:32.952Z,93.94
2023-04-17T12:16:32.456Z,93.23
2023-04-17T12:21:31.816Z,93.00
2023-04-17T12:26:32.114Z,92.14
2023-04-17T12:31:30.950Z,92.62
2023-04-17T12:36:30.343Z,93.44
2023-04-17T12:41:30.295Z,93.46
2023-04-17T12:46:32.029Z,93.80
2023-04-17T12:51:38.067Z,94.37
2023-04-17T12:56:38.442Z,94.85
2023-04-17T13:01:38.863Z,95.30
2023-04-17T13:06:37.739Z,96.26
2023-04-17T13:11:36.628Z,95.44
2023-04-17T13:16:35.523Z,95.93
2023-04-17T13:21:35.909Z,94.62
2023-04-17T13:26:34.549Z,94.80
2023-04-17T13:31:33.507Z,94.83
2023-04-17T13:36:32.874Z,95.16
2023-04-17T13:41:33.292Z,93.90
2023-04-17T13:46:33.202Z,94.41
2023-04-17T13:51:32.878Z,94.77
2023-04-17T13:56:33.664Z,95.88
2023-04-17T14:01:32.783Z,94.82
2023-04-17T14:06:33.694Z,96.08
2023-04-17T14:11:34.157Z,95.32
2023-04-17T14:16:33.497Z,95.81
2023-04-17T14:21:32.488Z,94.90
2023-04-17T14:26:31.788Z,94.45
2023-04-17T14:31:32.416Z,94.56
2023-04-17T14:36:31.342Z,94.42
2023-04-17T14:41:34.386Z,95.25
2023-04-17T14:46:35.323Z,96.35
2023-04-17T14:51:34.437Z,95.24
2023-04-17T14:56:33.512Z,94.81
2023-04-17T15:01:34.578Z,96.65
2023-04-17T15:06:33.690Z,97.35
2023-04-17T15:11:33.124Z,98.63
2023-04-17T15:16:32.835Z,99.62
2023-04-17T15:21:34.087Z,98.23
2023-04-17T15:26:34.669Z,99.53
2023-04-17T15:31:33.985Z,99.95
2023-04-17T15:36:38.533Z,99.73
2023-04-17T15:41:42.137Z,99.42
2023-04-17T15:46:43.477Z,100.00
2023-04-17T15:51:51.335Z,99.70
2023-04-17T15:56:51.067Z,100.00
2023-04-17T16:01:54.247Z,100.00
2023-04-17T16:06:59.141Z,99.86
2023-04-17T16:12:00.552Z,100.00
2023-04-17T16:22:30.766Z,99.93
2023-04-17T16:27:36.801Z,98.12
2023-04-17T16:32:39.543Z,97.69
2023-04-17T16:37:40.452Z,98.98
2023-04-17T16:42:39.459Z,98.74
2023-04-17T16:47:39.663Z,97.85
2023-04-17T16:52:41.098Z,98.18
2023-04-17T16:57:44.616Z,98.17
2023-04-17T17:02:44.424Z,97.93
2023-04-17T17:07:46.500Z,98.21
2023-04-17T17:12:47.417Z,96.81
2023-04-17T17:17:47.140Z,96.54
2023-04-17T17:22:47.966Z,96.29
2023-04-17T17:27:47.633Z,95.54
2023-04-17T17:32:47.882Z,96.22
2023-04-17T17:37:54.734Z,96.10
2023-04-17T17:42:57.881Z,94.46
2023-04-17T17:47:57.197Z,93.75
2023-04-17T17:52:59.280Z,93.18
2023-04-17T17:57:58.707Z,93.89
2023-04-17T18:03:05.398Z,93.68
2023-04-17T18:08:07.073Z,93.20
2023-04-17T18:13:07.115Z,93.70
2023-04-17T18:18:16.514Z,92.97
2023-04-17T18:23:17.633Z,93.16
2023-04-17T18:28:16.666Z,92.50
2023-04-17T18:33:15.988Z,92.54
2023-04-17T18:38:16.940Z,91.83
2023-04-17T18:43:16.343Z,91.14
2023-04-17T18:48:15.720Z,91.69
2023-04-17T18:53:16.671Z,91.92
2023-04-17T18:58:16.574Z,92.04
2023-04-17T19:03:16.234Z,91.95
2023-04-17T19:08:19.834Z,92.67
2023-04-17T19:13:18.796Z,92.09
2023-04-17T19:18:18.011Z,91.35
2023-04-17T19:23:21.046Z,90.88
2023-04-17T19:28:20.180Z,91.10
2023-04-17T19:33:20.669Z,89.88
2023-04-17T19:38:21.553Z,90.29
2023-04-17T19:43:20.588Z,89.52
2023-04-17T19:48:19.560Z,89.43
2023-04-17T19:53:18.427Z,89.25
2023-04-17T19:58:18.694Z,88.87
2023-04-17T20:03:17.777Z,89.74
2023-04-17T20:08:17.063Z,89.62
2023-04-17T20:13:16.157Z,89.27
2023-04-17T20:18:16.633Z,88.91
2023-04-17T20:23:15.544Z,89.01
2023-04-17T20:28:14.410Z,89.25
2023-04-17T20:33:13.334Z,89.25
2023-04-17T20:38:13.631Z,89.58
2023-04-17T20:43:13.207Z,88.98
2023-04-17T20:48:11.991Z,88.50
2023-04-17T20:53:10.923Z,88.68
2023-04-17T20:58:11.480Z,88.04
2023-04-17T21:03:10.532Z,88.08
2023-04-17T21:08:09.428Z,88.62
2023-04-17T21:13:08.138Z,89.09
2023-04-17T21:18:08.465Z,88.73
2023-04-17T21:23:07.290Z,88.59
2023-04-17T21:28:06.146Z,89.14
2023-04-17T21:33:05.227Z,88.58
2023-04-17T21:38:05.616Z,88.59
2023-04-17T21:43:04.524Z,88.95
2023-04-17T21:48:03.504Z,90.58
2023-04-17T21:53:02.356Z,90.72
2023-04-17T21:58:02.719Z,91.28
2023-04-17T22:03:01.593Z,91.27
2023-04-17T22:08:01.506Z,91.67
2023-04-17T22:13:00.674Z,91.34
2023-04-17T22:18:01.119Z,91.79
2023-04-17T22:22:59.970Z,91.09
2023-04-17T22:27:58.925Z,91.12
2023-04-17T22:32:57.856Z,90.99
2023-04-17T22:37:58.378Z,91.43
2023-04-17T22:42:58.080Z,92.77
2023-04-17T22:47:57.085Z,92.52
2023-04-17T22:52:57.256Z,94.58
2023-04-17T22:57:56.027Z,96.66
2023-04-17T23:02:54.933Z,96.84
2023-04-17T23:07:53.773Z,97.60
2023-04-17T23:12:53.922Z,97.96
2023-04-17T23:17:52.800Z,97.79
2023-04-17T23:22:51.711Z,96.60
2023-04-17T23:27:50.515Z,96.45
2023-04-17T23:32:53.706Z,96.56
2023-04-17T23:37:52.487Z,96.68
2023-04-17T23:42:51.320Z,97.29
2023-04-17T23:47:53.136Z,96.21
2023-04-17T23:52:54.317Z,95.49
2023-04-17T23:57:53.214Z,95.41
